createdAt,value
2018-07-21T00:02:11.764Z,54.4
2018-07-21T00:07:14.167Z,54.7
2018-07-21T00:12:16.644Z,55
2018-07-21T00:17:19.447Z,55.2
2018-07-21T00:22:21.712Z,55.5
2018-07-21T00:27:24.418Z,55.6
2018-07-21T00:32:27.136Z,55.9
2018-07-21T00:37:28.891Z,55.9
2018-07-21T00:47:33.754Z,56.1
2018-07-21T00:52:36.214Z,56.4
2018-07-21T00:57:38.699Z,56.6
2018-07-21T01:02:41.264Z,56.7
2018-07-21T01:07:43.631Z,56.9
2018-07-21T01:12:46.010Z,57.2
2018-07-21T01:17:48.613Z,57.2
2018-07-21T01:22:50.850Z,57.6
2018-07-21T01:27:53.302Z,57.6
2018-07-21T01:32:55.772Z,57.8
2018-07-21T01:37:58.315Z,57.9
2018-07-21T01:43:01.103Z,58.3
2018-07-21T01:48:03.247Z,58.4
2018-07-21T01:53:05.594Z,58.7
2018-07-21T01:58:08.144Z,58.6
2018-07-21T02:03:10.679Z,58.1
2018-07-21T02:08:12.967Z,58.1
2018-07-21T02:13:15.627Z,58.1
2018-07-21T02:18:18.001Z,58.1
2018-07-21T02:23:20.324Z,58.1
2018-07-21T02:28:22.881Z,58.7
2018-07-21T02:33:25.111Z,58.8
2018-07-21T02:38:27.608Z,58.9
2018-07-21T02:43:30.108Z,59.4
2018-07-21T02:48:32.504Z,59.6
2018-07-21T02:53:39.136Z,59.7
2018-07-21T02:58:37.445Z,59.6
2018-07-21T03:03:39.903Z,60.1
2018-07-21T03:08:42.236Z,59.9
2018-07-21T03:13:45.174Z,60.4
2018-07-21T03:23:49.500Z,59.5
2018-07-21T03:28:51.959Z,59.1
2018-07-21T03:33:54.686Z,58.5
2018-07-21T03:38:56.997Z,57.9
2018-07-21T03:43:59.736Z,57.9
2018-07-21T03:49:05.174Z,58
2018-07-21T03:54:04.261Z,57.9
2018-07-21T03:59:06.755Z,57.9
2018-07-21T04:04:09.202Z,57.8
2018-07-21T04:09:11.883Z,57.8
2018-07-21T04:14:14.133Z,57.1
2018-07-21T04:19:18.983Z,56.7
2018-07-21T04:24:24.503Z,56.4
2018-07-21T04:29:25.260Z,55.7
2018-07-21T04:34:23.836Z,54.7
2018-07-21T04:39:26.421Z,53.6
2018-07-21T04:44:28.973Z,52.4
2018-07-21T04:49:31.108Z,51.5
2018-07-21T04:54:43.805Z,50.7
2018-07-21T04:59:52.764Z,49.5
2018-07-21T05:04:51.088Z,48.9
2018-07-21T05:09:45.152Z,47.3
2018-07-21T05:14:46.984Z,46
2018-07-21T05:19:45.754Z,45.9
2018-07-21T05:24:48.287Z,44.9
2018-07-21T05:29:50.687Z,43.6
2018-07-21T05:34:53.230Z,40
2018-07-21T05:39:55.580Z,35.5
2018-07-21T05:45:10.630Z,33.7
2018-07-21T05:50:00.516Z,32.2
2018-07-21T05:55:02.991Z,33.5
2018-07-21T06:00:05.383Z,32
2018-07-21T06:05:07.818Z,29.6
2018-07-21T06:10:10.299Z,28.1
2018-07-21T06:15:12.781Z,27.3
2018-07-21T06:20:15.549Z,28.3
2018-07-21T06:25:17.733Z,29
2018-07-21T06:30:20.395Z,30.9
2018-07-21T06:35:22.590Z,33.1
2018-07-21T06:40:24.964Z,33.3
2018-07-21T06:45:27.388Z,30.6
2018-07-21T06:50:29.843Z,29.4
2018-07-21T06:55:35.601Z,29.7
2018-07-21T08:26:16.528Z,32.5
2018-07-21T08:31:18.816Z,33.2
2018-07-21T08:36:21.307Z,33.6
2018-07-21T08:41:23.892Z,33.6
2018-07-21T08:46:26.215Z,34.1
2018-07-21T08:51:28.621Z,35
2018-07-21T08:56:31.580Z,35
2018-07-21T09:01:37.934Z,35.3
2018-07-21T09:06:42.869Z,35.2
2018-07-21T09:12:29.330Z,35.8
2018-07-21T09:18:32.170Z,35
2018-07-21T09:26:46.017Z,35.8
2018-07-21T09:31:48.168Z,37.1
2018-07-21T09:36:50.796Z,37
2018-07-21T09:41:53.045Z,37
2018-07-21T09:46:55.540Z,37.8
2018-07-21T09:51:58.029Z,37.1
2018-07-21T09:57:05.794Z,37.4
2018-07-21T10:02:07.235Z,37.1
2018-07-21T10:07:10.813Z,36.5
2018-07-21T10:12:13.447Z,36.2
2018-07-21T10:17:10.218Z,34.8
2018-07-21T10:22:12.890Z,35.1
2018-07-21T10:27:15.160Z,35.2
2018-07-21T10:32:17.558Z,35.6
2018-07-21T10:42:22.617Z,36.2
2018-07-21T10:47:24.937Z,36.1
2018-07-21T10:52:27.424Z,36.2
2018-07-21T10:57:29.720Z,36.1
2018-07-21T11:02:32.191Z,36.1
2018-07-21T11:07:34.703Z,35.2
2018-07-21T11:12:37.491Z,35.5
2018-07-21T11:19:05.377Z,35.2
2018-07-21T11:27:44.686Z,34.9
2018-07-21T11:32:53.079Z,34.3
2018-07-21T11:37:49.356Z,34.7
2018-07-21T11:42:51.907Z,33.5
2018-07-21T11:47:54.514Z,33.8
2018-07-21T11:52:56.617Z,33.9
2018-07-21T11:57:59.192Z,32.9
2018-07-21T12:03:01.563Z,33.7
2018-07-21T12:08:03.991Z,33.1
2018-07-21T12:18:08.915Z,32.7
2018-07-21T12:23:11.346Z,32.6
2018-07-21T12:28:14.354Z,32.7
2018-07-21T12:33:16.252Z,32.1
2018-07-21T12:38:18.673Z,32.7
2018-07-21T12:43:21.104Z,32.5
2018-07-21T12:48:23.781Z,31.2
2018-07-21T12:53:48.499Z,32.3
2018-07-21T12:58:28.449Z,32.9
2018-07-21T13:03:30.904Z,34.3
2018-07-21T13:13:35.892Z,35.5
2018-07-21T13:18:38.217Z,36.4
2018-07-21T13:23:40.693Z,38.2
2018-07-21T13:28:43.185Z,39.1
2018-07-21T13:33:45.622Z,40.1
2018-07-21T13:38:48.025Z,40.8
2018-07-21T13:43:50.506Z,41.9
2018-07-21T13:48:52.963Z,42.1
2018-07-21T13:53:55.674Z,42.9
2018-07-21T13:59:03.681Z,43.4
2018-07-21T14:04:00.304Z,43.7
2018-07-21T14:09:02.769Z,43.8
2018-07-21T14:14:05.169Z,43.8
2018-07-21T14:19:07.667Z,44.1
2018-07-21T14:24:10.109Z,44.9
2018-07-21T14:29:12.531Z,45.4
2018-07-21T14:34:15.744Z,45.6
2018-07-21T14:39:17.500Z,45.8
2018-07-21T14:44:20.335Z,46.5
2018-07-21T14:49:22.508Z,46.5
2018-07-21T14:54:24.830Z,45.6
2018-07-21T14:59:27.402Z,46.8
2018-07-21T15:04:29.871Z,46.4
2018-07-21T15:09:32.196Z,47
2018-07-21T15:14:34.880Z,47.3
2018-07-21T15:19:37.399Z,47.3
2018-07-21T15:24:39.490Z,47.4
2018-07-21T15:29:41.962Z,47.9
2018-07-21T15:39:59.848Z,48.7
2018-07-21T15:44:54.989Z,48.6
2018-07-21T15:50:14.117Z,48.6
2018-07-21T15:54:54.330Z,48.5
2018-07-21T15:59:56.654Z,48.8
2018-07-21T16:04:59.148Z,49.1
2018-07-21T16:10:01.740Z,48.9
2018-07-21T16:15:04.323Z,49.6
2018-07-21T16:20:12.268Z,49.8
2018-07-21T16:25:08.896Z,50.1
2018-07-21T16:30:11.341Z,50.1
2018-07-21T16:35:13.806Z,49.6
2018-07-21T16:40:16.590Z,49.5
2018-07-21T16:45:18.708Z,49.3
2018-07-21T16:50:21.134Z,49.1
2018-07-21T16:55:23.652Z,49.5
2018-07-21T17:00:28.794Z,49.3
2018-07-21T17:10:43.717Z,49.7
2018-07-21T17:20:35.984Z,50.4
2018-07-21T17:25:38.329Z,50.6
2018-07-21T17:30:40.740Z,51
2018-07-21T17:35:43.265Z,51.5
2018-07-21T17:40:45.827Z,51.5
2018-07-21T17:50:50.590Z,51.9
2018-07-21T17:55:52.947Z,52.6
2018-07-21T18:00:55.409Z,52.7
2018-07-21T18:05:57.881Z,53.1
2018-07-21T18:11:00.596Z,53.5
2018-07-21T18:16:02.900Z,53.7
2018-07-21T18:21:05.198Z,54.7
2018-07-21T18:31:10.167Z,55.1
2018-07-21T18:36:12.570Z,56
2018-07-21T18:41:15.076Z,56.3
2018-07-21T18:46:17.714Z,56.6
2018-07-21T18:51:19.914Z,56.9
2018-07-21T18:56:22.331Z,57
2018-07-21T19:01:24.822Z,57.5
2018-07-21T19:06:27.230Z,58
2018-07-21T19:11:29.689Z,58.8
2018-07-21T19:16:32.367Z,59.1
2018-07-21T19:21:34.594Z,58.9
2018-07-21T19:26:36.992Z,59.1
2018-07-21T19:31:39.508Z,59.3
2018-07-21T19:41:44.344Z,59.3
2018-07-21T19:46:46.780Z,59.9
2018-07-21T19:51:49.332Z,59.9
2018-07-21T19:56:51.873Z,61.1
2018-07-21T20:01:54.123Z,60.9
2018-07-21T20:06:56.582Z,60.7
2018-07-21T20:11:59.033Z,60.4
2018-07-21T20:17:01.473Z,60.6
2018-07-21T20:22:04.000Z,61
2018-07-21T20:27:06.334Z,61.3
2018-07-21T20:32:08.825Z,61.9
2018-07-21T20:37:11.236Z,62.3
2018-07-21T20:42:13.885Z,62.4
2018-07-21T20:52:18.623Z,62.2
2018-07-21T20:57:21.015Z,62.6
2018-07-21T21:02:23.482Z,62.8
2018-07-21T21:07:25.955Z,62.9
2018-07-21T21:12:28.414Z,63.3
2018-07-21T21:17:30.829Z,63.9
2018-07-21T21:22:33.255Z,63.7
2018-07-21T21:27:35.711Z,63.6
2018-07-21T21:32:38.213Z,63.7
2018-07-21T21:37:40.795Z,64
2018-07-21T21:42:43.251Z,64.1
2018-07-21T21:47:45.476Z,64.9
2018-07-21T21:52:47.948Z,64.9
2018-07-21T21:57:51.358Z,65.2
2018-07-21T22:02:53.197Z,65.2
2018-07-21T22:07:55.296Z,65.3
2018-07-21T22:12:57.739Z,65.2
2018-07-21T22:18:00.283Z,65.2
2018-07-21T22:23:02.635Z,64.9
2018-07-21T22:28:05.090Z,65.2
2018-07-21T22:33:07.546Z,65.6
2018-07-21T22:38:10.034Z,65.4
2018-07-21T22:43:12.484Z,65.2
2018-07-21T22:48:14.944Z,65.3
2018-07-21T22:53:17.287Z,65.5
2018-07-21T22:58:20.035Z,65.6
2018-07-21T23:03:22.385Z,66.1
2018-07-21T23:08:24.910Z,66.3
2018-07-21T23:13:28.005Z,66.4
2018-07-21T23:18:29.678Z,66.4
2018-07-21T23:23:32.089Z,66.5
2018-07-21T23:28:34.494Z,66.5
2018-07-21T23:33:36.905Z,66.6
2018-07-21T23:38:39.479Z,66.9
2018-07-21T23:48:44.311Z,67.1
2018-07-21T23:53:46.627Z,67.2
2018-07-21T23:58:49.099Z,67.3
